sensor_id;sensor_type;location;lat;lon;timestamp;temperature;humidity
36444;DHT22;24692;45.642;13.806;2023-03-14T00:01:16;13.50;99.90
36444;DHT22;24692;45.642;13.806;2023-03-14T00:03:42;13.60;99.90
36444;DHT22;24692;45.642;13.806;2023-03-14T00:06:09;13.60;99.90
36444;DHT22;24692;45.642;13.806;2023-03-14T00:08:36;13.60;99.90
36444;DHT22;24692;45.642;13.806;2023-03-14T00:11:09;13.60;99.90
36444;DHT22;24692;45.642;13.806;2023-03-14T00:13:35;13.60;99.90
36444;DHT22;24692;45.642;13.806;2023-03-14T00:16:03;13.50;99.90
36444;DHT22;24692;45.642;13.806;2023-03-14T00:18:28;13.40;99.90
36444;DHT22;24692;45.642;13.806;2023-03-14T00:20:57;13.50;99.90
36444;DHT22;24692;45.642;13.806;2023-03-14T00:23:23;13.40;99.90
36444;DHT22;24692;45.642;13.806;2023-03-14T00:25:49;13.50;99.90
36444;DHT22;24692;45.642;13.806;2023-03-14T00:28:14;13.50;99.90
36444;DHT22;24692;45.642;13.806;2023-03-14T00:30:40;13.60;99.90
36444;DHT22;24692;45.642;13.806;2023-03-14T00:33:06;13.50;99.90
36444;DHT22;24692;45.642;13.806;2023-03-14T00:35:31;13.50;99.90
36444;DHT22;24692;45.642;13.806;2023-03-14T00:37:57;13.60;99.90
36444;DHT22;24692;45.642;13.806;2023-03-14T00:40:22;13.50;99.90
36444;DHT22;24692;45.642;13.806;2023-03-14T00:42:48;13.50;99.90
36444;DHT22;24692;45.642;13.806;2023-03-14T00:45:14;13.50;99.90
36444;DHT22;24692;45.642;13.806;2023-03-14T00:47:39;13.50;99.90
36444;DHT22;24692;45.642;13.806;2023-03-14T00:50:05;13.60;99.90
36444;DHT22;24692;45.642;13.806;2023-03-14T00:52:32;13.60;99.90
36444;DHT22;24692;45.642;13.806;2023-03-14T00:54:57;13.70;99.90
36444;DHT22;24692;45.642;13.806;2023-03-14T00:57:23;13.70;99.90
36444;DHT22;24692;45.642;13.806;2023-03-14T00:59:50;13.70;99.90
36444;DHT22;24692;45.642;13.806;2023-03-14T01:02:15;13.60;99.90
36444;DHT22;24692;45.642;13.806;2023-03-14T01:04:41;13.50;99.90
36444;DHT22;24692;45.642;13.806;2023-03-14T01:07:08;13.50;99.90
36444;DHT22;24692;45.642;13.806;2023-03-14T01:09:34;13.50;99.90
36444;DHT22;24692;45.642;13.806;2023-03-14T01:11:59;13.50;99.90
36444;DHT22;24692;45.642;13.806;2023-03-14T01:14:25;13.50;99.90
36444;DHT22;24692;45.642;13.806;2023-03-14T01:16:51;13.60;99.90
36444;DHT22;24692;45.642;13.806;2023-03-14T01:19:16;13.60;99.90
36444;DHT22;24692;45.642;13.806;2023-03-14T01:21:42;13.60;99.90
36444;DHT22;24692;45.642;13.806;2023-03-14T01:24:10;13.60;99.90
36444;DHT22;24692;45.642;13.806;2023-03-14T01:26:36;13.70;99.90
36444;DHT22;24692;45.642;13.806;2023-03-14T01:29:02;13.70;99.90
36444;DHT22;24692;45.642;13.806;2023-03-14T01:31:29;13.70;99.90
36444;DHT22;24692;45.642;13.806;2023-03-14T01:33:55;13.60;99.90
36444;DHT22;24692;45.642;13.806;2023-03-14T01:36:20;13.70;99.90
36444;DHT22;24692;45.642;13.806;2023-03-14T01:38:46;13.70;99.90
36444;DHT22;24692;45.642;13.806;2023-03-14T01:41:15;13.70;99.90
36444;DHT22;24692;45.642;13.806;2023-03-14T01:43:41;13.70;99.90
36444;DHT22;24692;45.642;13.806;2023-03-14T01:49:32;13.70;99.90
36444;DHT22;24692;45.642;13.806;2023-03-14T01:52:05;13.70;99.90
36444;DHT22;24692;45.642;13.806;2023-03-14T01:54:42;13.70;99.90
36444;DHT22;24692;45.642;13.806;2023-03-14T01:57:11;13.80;99.90
36444;DHT22;24692;45.642;13.806;2023-03-14T01:59:40;13.80;99.90
36444;DHT22;24692;45.642;13.806;2023-03-14T02:02:09;13.80;99.90
36444;DHT22;24692;45.642;13.806;2023-03-14T02:04:37;13.70;99.90
36444;DHT22;24692;45.642;13.806;2023-03-14T02:07:19;13.70;99.90
36444;DHT22;24692;45.642;13.806;2023-03-14T02:09:46;13.80;99.90
36444;DHT22;24692;45.642;13.806;2023-03-14T02:12:16;13.70;99.90
36444;DHT22;24692;45.642;13.806;2023-03-14T02:14:41;13.70;99.90
36444;DHT22;24692;45.642;13.806;2023-03-14T02:17:13;13.70;99.90
36444;DHT22;24692;45.642;13.806;2023-03-14T02:22:12;13.70;99.90
36444;DHT22;24692;45.642;13.806;2023-03-14T02:27:27;13.80;99.90
36444;DHT22;24692;45.642;13.806;2023-03-14T02:29:57;13.90;99.90
36444;DHT22;24692;45.642;13.806;2023-03-14T02:32:25;13.90;99.90
36444;DHT22;24692;45.642;13.806;2023-03-14T02:34:57;13.80;99.90
36444;DHT22;24692;45.642;13.806;2023-03-14T02:37:30;13.80;99.90
36444;DHT22;24692;45.642;13.806;2023-03-14T02:39:58;13.90;99.90
36444;DHT22;24692;45.642;13.806;2023-03-14T02:42:24;13.80;99.90
36444;DHT22;24692;45.642;13.806;2023-03-14T02:44:55;13.80;99.90
36444;DHT22;24692;45.642;13.806;2023-03-14T02:47:29;13.80;99.90
36444;DHT22;24692;45.642;13.806;2023-03-14T02:50:02;13.80;99.90
36444;DHT22;24692;45.642;13.806;2023-03-14T02:52:28;13.80;99.90
36444;DHT22;24692;45.642;13.806;2023-03-14T02:54:53;13.80;99.90
36444;DHT22;24692;45.642;13.806;2023-03-14T02:57:19;13.80;99.90
36444;DHT22;24692;45.642;13.806;2023-03-14T02:59:45;13.80;99.90
36444;DHT22;24692;45.642;13.806;2023-03-14T03:02:10;13.80;99.90
36444;DHT22;24692;45.642;13.806;2023-03-14T03:04:36;13.70;99.90
36444;DHT22;24692;45.642;13.806;2023-03-14T03:07:02;13.80;99.90
36444;DHT22;24692;45.642;13.806;2023-03-14T03:09:27;13.80;99.90
36444;DHT22;24692;45.642;13.806;2023-03-14T03:11:53;13.80;99.90
36444;DHT22;24692;45.642;13.806;2023-03-14T03:14:18;13.80;99.90
36444;DHT22;24692;45.642;13.806;2023-03-14T03:16:44;13.80;99.90
36444;DHT22;24692;45.642;13.806;2023-03-14T03:19:10;13.80;99.90
36444;DHT22;24692;45.642;13.806;2023-03-14T03:21:35;13.80;99.90
36444;DHT22;24692;45.642;13.806;2023-03-14T03:24:01;13.70;99.90
36444;DHT22;24692;45.642;13.806;2023-03-14T03:26:26;13.80;99.90
36444;DHT22;24692;45.642;13.806;2023-03-14T03:28:52;13.70;99.90
36444;DHT22;24692;45.642;13.806;2023-03-14T03:31:18;13.80;99.90
36444;DHT22;24692;45.642;13.806;2023-03-14T03:33:44;13.80;99.90
36444;DHT22;24692;45.642;13.806;2023-03-14T03:36:10;13.80;99.90
36444;DHT22;24692;45.642;13.806;2023-03-14T03:38:36;13.80;99.90
36444;DHT22;24692;45.642;13.806;2023-03-14T03:41:06;13.80;99.90
36444;DHT22;24692;45.642;13.806;2023-03-14T03:43:32;13.80;99.90
36444;DHT22;24692;45.642;13.806;2023-03-14T03:45:58;13.80;99.90
36444;DHT22;24692;45.642;13.806;2023-03-14T03:48:23;13.80;99.90
36444;DHT22;24692;45.642;13.806;2023-03-14T03:50:49;13.80;99.90
36444;DHT22;24692;45.642;13.806;2023-03-14T03:53:15;13.80;99.90
36444;DHT22;24692;45.642;13.806;2023-03-14T03:55:41;13.80;99.90
36444;DHT22;24692;45.642;13.806;2023-03-14T03:58:08;13.80;99.90
36444;DHT22;24692;45.642;13.806;2023-03-14T04:00:33;13.70;99.90
36444;DHT22;24692;45.642;13.806;2023-03-14T04:02:59;13.80;99.90
36444;DHT22;24692;45.642;13.806;2023-03-14T04:05:26;13.80;99.90
36444;DHT22;24692;45.642;13.806;2023-03-14T04:07:51;13.80;99.90
36444;DHT22;24692;45.642;13.806;2023-03-14T04:10:17;13.70;99.90
36444;DHT22;24692;45.642;13.806;2023-03-14T04:12:43;13.70;99.90
36444;DHT22;24692;45.642;13.806;2023-03-14T04:15:09;13.70;99.90
36444;DHT22;24692;45.642;13.806;2023-03-14T04:17:34;13.70;99.90
36444;DHT22;24692;45.642;13.806;2023-03-14T04:20:00;13.70;99.90
36444;DHT22;24692;45.642;13.806;2023-03-14T04:22:26;13.70;99.90
36444;DHT22;24692;45.642;13.806;2023-03-14T04:24:51;13.70;99.90
36444;DHT22;24692;45.642;13.806;2023-03-14T04:27:17;13.70;99.90
36444;DHT22;24692;45.642;13.806;2023-03-14T04:29:43;13.70;99.90
36444;DHT22;24692;45.642;13.806;2023-03-14T04:32:08;13.70;99.90
36444;DHT22;24692;45.642;13.806;2023-03-14T04:34:34;13.60;99.90
36444;DHT22;24692;45.642;13.806;2023-03-14T04:37:00;13.60;99.90
36444;DHT22;24692;45.642;13.806;2023-03-14T04:39:25;13.60;99.90
36444;DHT22;24692;45.642;13.806;2023-03-14T04:41:51;13.60;99.90
36444;DHT22;24692;45.642;13.806;2023-03-14T04:44:17;13.60;99.90
36444;DHT22;24692;45.642;13.806;2023-03-14T04:46:43;13.60;99.90
36444;DHT22;24692;45.642;13.806;2023-03-14T04:49:09;13.60;99.90
36444;DHT22;24692;45.642;13.806;2023-03-14T04:51:34;13.60;99.90
36444;DHT22;24692;45.642;13.806;2023-03-14T04:54:00;13.60;99.90
36444;DHT22;24692;45.642;13.806;2023-03-14T04:56:26;13.60;99.90
36444;DHT22;24692;45.642;13.806;2023-03-14T04:58:52;13.60;99.90
36444;DHT22;24692;45.642;13.806;2023-03-14T05:01:18;13.60;99.90
36444;DHT22;24692;45.642;13.806;2023-03-14T05:03:44;13.60;99.90
36444;DHT22;24692;45.642;13.806;2023-03-14T05:06:09;13.50;99.90
36444;DHT22;24692;45.642;13.806;2023-03-14T05:08:35;13.50;99.90
36444;DHT22;24692;45.642;13.806;2023-03-14T05:11:01;13.50;99.90
36444;DHT22;24692;45.642;13.806;2023-03-14T05:13:28;13.50;99.90
36444;DHT22;24692;45.642;13.806;2023-03-14T05:15:53;13.50;99.90
36444;DHT22;24692;45.642;13.806;2023-03-14T05:18:28;13.50;99.90
36444;DHT22;24692;45.642;13.806;2023-03-14T05:20:53;13.60;99.90
36444;DHT22;24692;45.642;13.806;2023-03-14T05:23:19;13.60;99.90
36444;DHT22;24692;45.642;13.806;2023-03-14T05:25:45;13.70;99.90
36444;DHT22;24692;45.642;13.806;2023-03-14T05:28:10;13.70;99.90
36444;DHT22;24692;45.642;13.806;2023-03-14T05:30:36;13.80;99.90
36444;DHT22;24692;45.642;13.806;2023-03-14T05:33:02;13.80;99.90
36444;DHT22;24692;45.642;13.806;2023-03-14T05:35:27;13.70;99.90
36444;DHT22;24692;45.642;13.806;2023-03-14T05:37:53;13.70;99.90
36444;DHT22;24692;45.642;13.806;2023-03-14T05:40:18;13.70;99.90
36444;DHT22;24692;45.642;13.806;2023-03-14T05:42:44;13.70;99.90
36444;DHT22;24692;45.642;13.806;2023-03-14T05:45:10;13.70;99.90
36444;DHT22;24692;45.642;13.806;2023-03-14T05:47:36;13.70;99.90
36444;DHT22;24692;45.642;13.806;2023-03-14T05:50:02;13.70;99.90
36444;DHT22;24692;45.642;13.806;2023-03-14T05:52:27;13.80;99.90
36444;DHT22;24692;45.642;13.806;2023-03-14T05:54:53;13.70;99.90
36444;DHT22;24692;45.642;13.806;2023-03-14T05:57:19;13.70;99.90
36444;DHT22;24692;45.642;13.806;2023-03-14T05:59:44;13.70;99.90
36444;DHT22;24692;45.642;13.806;2023-03-14T06:02:10;13.70;99.90
36444;DHT22;24692;45.642;13.806;2023-03-14T06:04:36;13.70;99.90
36444;DHT22;24692;45.642;13.806;2023-03-14T06:07:01;13.60;99.90
36444;DHT22;24692;45.642;13.806;2023-03-14T06:09:27;13.60;99.90
36444;DHT22;24692;45.642;13.806;2023-03-14T06:11:53;13.70;99.90
36444;DHT22;24692;45.642;13.806;2023-03-14T06:14:18;13.70;99.90
36444;DHT22;24692;45.642;13.806;2023-03-14T06:16:44;13.70;99.90
36444;DHT22;24692;45.642;13.806;2023-03-14T06:19:10;13.80;99.90
36444;DHT22;24692;45.642;13.806;2023-03-14T06:21:37;13.80;99.90
36444;DHT22;24692;45.642;13.806;2023-03-14T06:24:02;13.80;99.90
36444;DHT22;24692;45.642;13.806;2023-03-14T06:26:29;13.80;99.90
36444;DHT22;24692;45.642;13.806;2023-03-14T06:28:55;13.90;99.90
36444;DHT22;24692;45.642;13.806;2023-03-14T06:31:20;13.90;99.90
36444;DHT22;24692;45.642;13.806;2023-03-14T06:33:46;13.90;99.90
36444;DHT22;24692;45.642;13.806;2023-03-14T06:36:11;13.90;99.90
36444;DHT22;24692;45.642;13.806;2023-03-14T06:38:37;13.90;99.90
36444;DHT22;24692;45.642;13.806;2023-03-14T06:41:04;14.00;99.90
36444;DHT22;24692;45.642;13.806;2023-03-14T06:43:30;14.00;99.90
36444;DHT22;24692;45.642;13.806;2023-03-14T06:45:56;14.00;99.90
36444;DHT22;24692;45.642;13.806;2023-03-14T06:48:21;13.90;99.90
36444;DHT22;24692;45.642;13.806;2023-03-14T06:50:48;14.00;99.90
36444;DHT22;24692;45.642;13.806;2023-03-14T06:53:14;13.90;99.90
36444;DHT22;24692;45.642;13.806;2023-03-14T06:55:40;13.90;99.90
36444;DHT22;24692;45.642;13.806;2023-03-14T06:58:06;14.00;99.90
36444;DHT22;24692;45.642;13.806;2023-03-14T07:00:34;13.90;99.90
36444;DHT22;24692;45.642;13.806;2023-03-14T07:02:59;14.00;99.90
36444;DHT22;24692;45.642;13.806;2023-03-14T07:05:27;14.00;99.90
36444;DHT22;24692;45.642;13.806;2023-03-14T07:07:54;13.90;99.90
36444;DHT22;24692;45.642;13.806;2023-03-14T07:10:20;14.00;99.90
36444;DHT22;24692;45.642;13.806;2023-03-14T07:12:46;14.20;99.90
36444;DHT22;24692;45.642;13.806;2023-03-14T07:15:13;14.20;99.90
36444;DHT22;24692;45.642;13.806;2023-03-14T07:17:38;14.30;99.90
36444;DHT22;24692;45.642;13.806;2023-03-14T07:20:04;14.70;99.90
36444;DHT22;24692;45.642;13.806;2023-03-14T07:22:31;14.80;99.90
36444;DHT22;24692;45.642;13.806;2023-03-14T07:24:56;14.70;99.90
36444;DHT22;24692;45.642;13.806;2023-03-14T07:27:22;14.60;99.90
36444;DHT22;24692;45.642;13.806;2023-03-14T07:29:48;14.60;99.90
36444;DHT22;24692;45.642;13.806;2023-03-14T07:32:13;14.90;99.90
36444;DHT22;24692;45.642;13.806;2023-03-14T07:34:43;15.20;99.90
36444;DHT22;24692;45.642;13.806;2023-03-14T07:37:09;15.10;99.90
36444;DHT22;24692;45.642;13.806;2023-03-14T07:39:35;14.70;99.90
36444;DHT22;24692;45.642;13.806;2023-03-14T07:42:00;14.60;99.90
36444;DHT22;24692;45.642;13.806;2023-03-14T07:44:26;14.70;99.90
36444;DHT22;24692;45.642;13.806;2023-03-14T07:46:54;14.80;99.90
36444;DHT22;24692;45.642;13.806;2023-03-14T07:49:19;14.50;99.90
36444;DHT22;24692;45.642;13.806;2023-03-14T07:51:48;14.60;99.90
36444;DHT22;24692;45.642;13.806;2023-03-14T07:54:14;14.50;99.90
36444;DHT22;24692;45.642;13.806;2023-03-14T07:56:39;14.60;99.90
36444;DHT22;24692;45.642;13.806;2023-03-14T07:59:05;14.40;99.90
36444;DHT22;24692;45.642;13.806;2023-03-14T08:01:31;14.60;99.90
36444;DHT22;24692;45.642;13.806;2023-03-14T08:03:57;14.60;99.90
36444;DHT22;24692;45.642;13.806;2023-03-14T08:06:22;14.70;99.90
36444;DHT22;24692;45.642;13.806;2023-03-14T08:08:48;14.70;99.90
36444;DHT22;24692;45.642;13.806;2023-03-14T08:11:13;14.80;99.90
36444;DHT22;24692;45.642;13.806;2023-03-14T08:13:39;14.60;99.90
36444;DHT22;24692;45.642;13.806;2023-03-14T08:16:05;14.60;99.90
36444;DHT22;24692;45.642;13.806;2023-03-14T08:18:31;14.60;99.90
36444;DHT22;24692;45.642;13.806;2023-03-14T08:20:57;14.70;99.90
36444;DHT22;24692;45.642;13.806;2023-03-14T08:23:23;14.70;99.90
36444;DHT22;24692;45.642;13.806;2023-03-14T08:25:49;14.40;99.90
36444;DHT22;24692;45.642;13.806;2023-03-14T08:28:16;14.70;99.90
36444;DHT22;24692;45.642;13.806;2023-03-14T08:30:42;15.00;99.90
36444;DHT22;24692;45.642;13.806;2023-03-14T08:33:07;14.90;99.90
36444;DHT22;24692;45.642;13.806;2023-03-14T08:35:33;14.60;99.90
36444;DHT22;24692;45.642;13.806;2023-03-14T08:37:59;14.70;99.90
36444;DHT22;24692;45.642;13.806;2023-03-14T08:40:24;14.70;99.90
36444;DHT22;24692;45.642;13.806;2023-03-14T08:42:50;14.70;99.90
36444;DHT22;24692;45.642;13.806;2023-03-14T08:45:16;14.60;99.90
36444;DHT22;24692;45.642;13.806;2023-03-14T08:47:43;14.80;99.90
36444;DHT22;24692;45.642;13.806;2023-03-14T08:50:10;14.90;99.90
36444;DHT22;24692;45.642;13.806;2023-03-14T08:52:36;14.80;99.90
36444;DHT22;24692;45.642;13.806;2023-03-14T08:55:09;14.90;99.90
36444;DHT22;24692;45.642;13.806;2023-03-14T08:57:35;14.70;99.90
36444;DHT22;24692;45.642;13.806;2023-03-14T09:00:03;14.60;99.90
36444;DHT22;24692;45.642;13.806;2023-03-14T09:02:31;14.50;99.90
36444;DHT22;24692;45.642;13.806;2023-03-14T09:04:57;14.50;99.90
36444;DHT22;24692;45.642;13.806;2023-03-14T09:07:22;14.50;99.90
36444;DHT22;24692;45.642;13.806;2023-03-14T09:09:48;14.50;99.90
36444;DHT22;24692;45.642;13.806;2023-03-14T09:12:18;14.70;99.90
36444;DHT22;24692;45.642;13.806;2023-03-14T09:14:43;14.70;99.90
36444;DHT22;24692;45.642;13.806;2023-03-14T09:17:09;14.70;99.90
36444;DHT22;24692;45.642;13.806;2023-03-14T09:19:35;14.80;99.90
36444;DHT22;24692;45.642;13.806;2023-03-14T09:22:00;14.70;99.90
36444;DHT22;24692;45.642;13.806;2023-03-14T09:24:26;14.30;99.90
36444;DHT22;24692;45.642;13.806;2023-03-14T09:26:52;14.10;99.90
36444;DHT22;24692;45.642;13.806;2023-03-14T09:29:17;14.00;99.90
36444;DHT22;24692;45.642;13.806;2023-03-14T09:31:43;14.30;99.90
36444;DHT22;24692;45.642;13.806;2023-03-14T09:34:09;14.10;99.90
36444;DHT22;24692;45.642;13.806;2023-03-14T09:36:34;13.90;99.90
36444;DHT22;24692;45.642;13.806;2023-03-14T09:39:00;13.70;99.90
36444;DHT22;24692;45.642;13.806;2023-03-14T09:41:33;13.70;99.90
36444;DHT22;24692;45.642;13.806;2023-03-14T09:44:04;13.70;99.90
36444;DHT22;24692;45.642;13.806;2023-03-14T09:46:31;13.90;99.90
36444;DHT22;24692;45.642;13.806;2023-03-14T09:48:59;14.10;99.90
36444;DHT22;24692;45.642;13.806;2023-03-14T09:51:26;14.10;99.90
36444;DHT22;24692;45.642;13.806;2023-03-14T09:53:51;14.10;99.90
36444;DHT22;24692;45.642;13.806;2023-03-14T09:56:24;14.30;99.90
36444;DHT22;24692;45.642;13.806;2023-03-14T09:58:59;14.50;99.90
36444;DHT22;24692;45.642;13.806;2023-03-14T10:01:27;14.50;99.90
36444;DHT22;24692;45.642;13.806;2023-03-14T10:03:56;14.30;99.90
36444;DHT22;24692;45.642;13.806;2023-03-14T10:06:28;14.20;99.90
36444;DHT22;24692;45.642;13.806;2023-03-14T10:08:55;13.90;99.90
36444;DHT22;24692;45.642;13.806;2023-03-14T10:11:22;13.90;99.90
36444;DHT22;24692;45.642;13.806;2023-03-14T10:14:07;13.90;99.90
36444;DHT22;24692;45.642;13.806;2023-03-14T10:16:44;13.90;99.90
36444;DHT22;24692;45.642;13.806;2023-03-14T10:19:14;14.00;99.90
36444;DHT22;24692;45.642;13.806;2023-03-14T10:21:43;14.10;99.90
36444;DHT22;24692;45.642;13.806;2023-03-14T10:24:32;14.10;99.90
36444;DHT22;24692;45.642;13.806;2023-03-14T10:27:02;14.10;99.90
36444;DHT22;24692;45.642;13.806;2023-03-14T10:29:32;14.10;99.90
36444;DHT22;24692;45.642;13.806;2023-03-14T10:32:00;14.10;99.90
36444;DHT22;24692;45.642;13.806;2023-03-14T10:34:32;14.20;99.90
36444;DHT22;24692;45.642;13.806;2023-03-14T10:37:18;14.30;99.90
36444;DHT22;24692;45.642;13.806;2023-03-14T10:39:49;14.70;99.90
36444;DHT22;24692;45.642;13.806;2023-03-14T10:42:30;15.10;99.90
36444;DHT22;24692;45.642;13.806;2023-03-14T10:45:28;15.10;99.90
36444;DHT22;24692;45.642;13.806;2023-03-14T10:48:23;15.10;99.90
36444;DHT22;24692;45.642;13.806;2023-03-14T10:50:55;15.00;99.90
36444;DHT22;24692;45.642;13.806;2023-03-14T10:53:23;14.90;99.90
36444;DHT22;24692;45.642;13.806;2023-03-14T10:55:50;14.90;99.90
36444;DHT22;24692;45.642;13.806;2023-03-14T10:58:27;14.90;99.90
36444;DHT22;24692;45.642;13.806;2023-03-14T11:01:37;15.00;99.90
36444;DHT22;24692;45.642;13.806;2023-03-14T11:11:39;15.10;99.90
36444;DHT22;24692;45.642;13.806;2023-03-14T11:14:20;15.00;99.90
36444;DHT22;24692;45.642;13.806;2023-03-14T11:17:15;15.20;99.90
36444;DHT22;24692;45.642;13.806;2023-03-14T11:20:09;15.00;99.90
36444;DHT22;24692;45.642;13.806;2023-03-14T11:22:59;14.50;99.90
36444;DHT22;24692;45.642;13.806;2023-03-14T11:25:36;14.20;99.90
36444;DHT22;24692;45.642;13.806;2023-03-14T11:28:36;14.00;99.90
36444;DHT22;24692;45.642;13.806;2023-03-14T11:36:37;14.00;99.90
36444;DHT22;24692;45.642;13.806;2023-03-14T11:39:14;14.20;99.90
36444;DHT22;24692;45.642;13.806;2023-03-14T11:41:52;14.10;99.90
36444;DHT22;24692;45.642;13.806;2023-03-14T11:44:27;14.20;99.90
36444;DHT22;24692;45.642;13.806;2023-03-14T11:47:40;14.40;99.90
36444;DHT22;24692;45.642;13.806;2023-03-14T11:50:22;14.20;99.90
36444;DHT22;24692;45.642;13.806;2023-03-14T11:53:09;14.20;99.90
36444;DHT22;24692;45.642;13.806;2023-03-14T11:55:39;14.40;99.90
36444;DHT22;24692;45.642;13.806;2023-03-14T11:58:23;14.70;99.90
36444;DHT22;24692;45.642;13.806;2023-03-14T12:00:55;14.70;99.90
36444;DHT22;24692;45.642;13.806;2023-03-14T12:03:46;14.30;99.90
36444;DHT22;24692;45.642;13.806;2023-03-14T12:06:45;14.60;99.90
36444;DHT22;24692;45.642;13.806;2023-03-14T12:09:17;14.30;99.90
36444;DHT22;24692;45.642;13.806;2023-03-14T12:11:59;14.10;99.90
36444;DHT22;24692;45.642;13.806;2023-03-14T12:14:36;14.20;99.90
36444;DHT22;24692;45.642;13.806;2023-03-14T12:17:40;14.10;99.90
36444;DHT22;24692;45.642;13.806;2023-03-14T12:20:26;14.00;99.90
36444;DHT22;24692;45.642;13.806;2023-03-14T12:22:54;14.00;99.90
36444;DHT22;24692;45.642;13.806;2023-03-14T12:25:23;14.40;99.90
36444;DHT22;24692;45.642;13.806;2023-03-14T12:28:16;14.80;99.90
36444;DHT22;24692;45.642;13.806;2023-03-14T12:30:45;14.70;99.90
36444;DHT22;24692;45.642;13.806;2023-03-14T12:35:52;14.90;99.90
36444;DHT22;24692;45.642;13.806;2023-03-14T12:38:48;14.50;99.90
36444;DHT22;24692;45.642;13.806;2023-03-14T12:41:41;14.30;99.90
36444;DHT22;24692;45.642;13.806;2023-03-14T12:49:45;14.80;99.90
36444;DHT22;24692;45.642;13.806;2023-03-14T12:52:33;14.90;99.90
36444;DHT22;24692;45.642;13.806;2023-03-14T12:55:24;14.70;99.90
36444;DHT22;24692;45.642;13.806;2023-03-14T12:58:13;14.50;99.90
36444;DHT22;24692;45.642;13.806;2023-03-14T13:00:41;14.30;99.90
36444;DHT22;24692;45.642;13.806;2023-03-14T13:03:23;14.30;99.90
36444;DHT22;24692;45.642;13.806;2023-03-14T13:06:00;14.30;99.90
36444;DHT22;24692;45.642;13.806;2023-03-14T13:08:43;14.20;99.90
36444;DHT22;24692;45.642;13.806;2023-03-14T13:11:16;14.20;99.90
36444;DHT22;24692;45.642;13.806;2023-03-14T13:13:56;14.40;99.90
36444;DHT22;24692;45.642;13.806;2023-03-14T13:16:27;14.30;99.90
36444;DHT22;24692;45.642;13.806;2023-03-14T13:19:03;14.40;99.90
36444;DHT22;24692;45.642;13.806;2023-03-14T13:21:35;14.40;99.90
36444;DHT22;24692;45.642;13.806;2023-03-14T13:24:07;14.40;99.90
36444;DHT22;24692;45.642;13.806;2023-03-14T13:26:44;14.40;99.90
36444;DHT22;24692;45.642;13.806;2023-03-14T13:29:17;14.40;99.90
36444;DHT22;24692;45.642;13.806;2023-03-14T13:31:49;14.00;99.90
36444;DHT22;24692;45.642;13.806;2023-03-14T13:34:15;14.10;99.90
36444;DHT22;24692;45.642;13.806;2023-03-14T13:36:41;14.20;99.90
36444;DHT22;24692;45.642;13.806;2023-03-14T13:39:13;13.90;99.90
36444;DHT22;24692;45.642;13.806;2023-03-14T13:41:42;14.10;99.90
36444;DHT22;24692;45.642;13.806;2023-03-14T13:44:17;14.20;99.90
36444;DHT22;24692;45.642;13.806;2023-03-14T13:46:48;14.20;99.90
36444;DHT22;24692;45.642;13.806;2023-03-14T13:49:21;14.00;99.90
36444;DHT22;24692;45.642;13.806;2023-03-14T13:51:48;14.00;99.90
36444;DHT22;24692;45.642;13.806;2023-03-14T13:54:18;14.00;99.90
36444;DHT22;24692;45.642;13.806;2023-03-14T13:56:45;13.90;99.90
36444;DHT22;24692;45.642;13.806;2023-03-14T13:59:32;13.90;99.90
36444;DHT22;24692;45.642;13.806;2023-03-14T14:02:03;13.90;99.90
36444;DHT22;24692;45.642;13.806;2023-03-14T14:04:33;13.90;99.90
36444;DHT22;24692;45.642;13.806;2023-03-14T14:07:07;13.90;99.90
36444;DHT22;24692;45.642;13.806;2023-03-14T14:09:59;14.20;99.90
36444;DHT22;24692;45.642;13.806;2023-03-14T14:12:31;14.50;99.90
36444;DHT22;24692;45.642;13.806;2023-03-14T14:15:44;14.60;99.90
36444;DHT22;24692;45.642;13.806;2023-03-14T14:17:57;14.70;99.90
36444;DHT22;24692;45.642;13.806;2023-03-14T14:20:37;14.60;99.90
36444;DHT22;24692;45.642;13.806;2023-03-14T14:23:05;14.40;99.90
36444;DHT22;24692;45.642;13.806;2023-03-14T14:25:34;14.20;99.90
36444;DHT22;24692;45.642;13.806;2023-03-14T14:28:20;14.10;99.90
36444;DHT22;24692;45.642;13.806;2023-03-14T14:33:28;14.20;99.90
36444;DHT22;24692;45.642;13.806;2023-03-14T14:35:59;14.40;99.90
36444;DHT22;24692;45.642;13.806;2023-03-14T14:38:28;14.20;99.90
36444;DHT22;24692;45.642;13.806;2023-03-14T14:41:01;13.90;99.90
36444;DHT22;24692;45.642;13.806;2023-03-14T14:43:36;13.90;99.90
36444;DHT22;24692;45.642;13.806;2023-03-14T14:46:06;13.90;99.90
36444;DHT22;24692;45.642;13.806;2023-03-14T14:48:37;13.70;99.90
36444;DHT22;24692;45.642;13.806;2023-03-14T14:51:05;13.50;99.90
36444;DHT22;24692;45.642;13.806;2023-03-14T14:53:42;13.60;99.90
36444;DHT22;24692;45.642;13.806;2023-03-14T14:56:26;13.60;99.90
36444;DHT22;24692;45.642;13.806;2023-03-14T14:58:58;13.60;99.90
36444;DHT22;24692;45.642;13.806;2023-03-14T15:01:37;13.70;99.90
36444;DHT22;24692;45.642;13.806;2023-03-14T15:04:11;13.80;99.90
36444;DHT22;24692;45.642;13.806;2023-03-14T15:06:41;14.10;99.90
36444;DHT22;24692;45.642;13.806;2023-03-14T15:09:10;14.30;99.90
36444;DHT22;24692;45.642;13.806;2023-03-14T15:11:36;14.20;99.90
36444;DHT22;24692;45.642;13.806;2023-03-14T15:14:02;14.10;99.90
36444;DHT22;24692;45.642;13.806;2023-03-14T15:16:30;14.10;99.90
36444;DHT22;24692;45.642;13.806;2023-03-14T15:19:01;14.20;99.90
36444;DHT22;24692;45.642;13.806;2023-03-14T15:21:28;14.30;99.90
36444;DHT22;24692;45.642;13.806;2023-03-14T15:23:54;14.20;99.90
36444;DHT22;24692;45.642;13.806;2023-03-14T15:26:22;14.20;99.90
36444;DHT22;24692;45.642;13.806;2023-03-14T15:28:49;13.90;99.90
36444;DHT22;24692;45.642;13.806;2023-03-14T15:31:16;13.90;99.90
36444;DHT22;24692;45.642;13.806;2023-03-14T15:33:44;13.80;99.90
36444;DHT22;24692;45.642;13.806;2023-03-14T15:36:29;13.70;99.90
36444;DHT22;24692;45.642;13.806;2023-03-14T15:38:56;13.50;99.90
36444;DHT22;24692;45.642;13.806;2023-03-14T15:41:22;13.60;99.90
36444;DHT22;24692;45.642;13.806;2023-03-14T15:43:48;13.80;99.90
36444;DHT22;24692;45.642;13.806;2023-03-14T15:46:14;13.80;99.90
36444;DHT22;24692;45.642;13.806;2023-03-14T15:48:42;13.80;99.90
36444;DHT22;24692;45.642;13.806;2023-03-14T15:51:08;13.70;99.90
36444;DHT22;24692;45.642;13.806;2023-03-14T15:53:34;13.70;99.90
36444;DHT22;24692;45.642;13.806;2023-03-14T15:56:03;13.70;99.90
36444;DHT22;24692;45.642;13.806;2023-03-14T15:58:29;13.80;99.90
36444;DHT22;24692;45.642;13.806;2023-03-14T16:01:02;13.90;99.90
36444;DHT22;24692;45.642;13.806;2023-03-14T16:03:28;13.90;99.90